Flight Track Log - Related Links

Times and Time Zones

All times are in EDT time to prevent confusion due to time zone crossing. See the JIA2469 flight status page for this flight to view local times or setup timezone preferences in your user account.

Time Position Orientation Groundspeed Altitude Reporting Facility
EDT Latitude Longitude Course Direction KTS MPH feet Rate Location/Type
Wed 12:54:00 PM 32.4287 -86.1910 55° Northeast  Level FlightAware Approximate
Wed 12:54:30 PM 32.3697 -86.4661 19° North 255 293 5,000  Level Atlanta Center
Wed 12:55:00 PM 32.4934 -86.0944 55° Northeast  Level FlightAware Approximate
Wed 12:55:30 PM 32.4108 -86.4008 53° Northeast 299 344 6,900  Level Atlanta Center
Wed 12:56:00 PM 32.5547 -85.9939 47° Northeast  Level FlightAware Approximate
Wed 12:56:30 PM 32.4333 -86.3078 74° East 293 337 9,600  Level Atlanta Center
Wed 12:57:00 PM 32.6258 -85.9027 47° Northeast  Level FlightAware Approximate
Wed 12:57:30 PM 32.4561 -86.2100 75° East 293 337 11,600  Level Atlanta Center
Wed 12:58:00 PM 32.6916 -85.8065 56° Northeast  Level FlightAware Approximate
Wed 12:58:30 PM 32.4744 -86.1069 78° East 303 349 13,700  Level Atlanta Center
Wed 12:59:30 PM 32.4950 -86.0017 77° East 316 364 15,400 1,700 Climbing Atlanta Center
Wed 01:00:30 PM 32.5133 -85.8961 78° East 323 372 17,100 1,400 Climbing Atlanta Center
Wed 01:01:30 PM 32.5275 -85.7831 82° East 335 386 18,200 1,150 Climbing Atlanta Center
Wed 01:02:30 PM 32.5417 -85.6625 82° East 347 399 19,400 1,200 Climbing Atlanta Center
Wed 01:03:30 PM 32.5453 -85.5394 88° East 352 405 20,600 1,200 Climbing Atlanta Center
Wed 01:04:30 PM 32.5528 -85.4214 86° East 362 417 21,800 1,200 Climbing Atlanta Center
Wed 01:05:30 PM 32.5333 -85.2953 100° East 368 423 23,000 1,200 Climbing Atlanta Center
Wed 01:06:30 PM 32.5219 -85.1819 97° East 368 423 24,200 950 Climbing Atlanta Center
Wed 01:07:30 PM 32.5022 -85.0633 101° East 368 423 24,900 750 Climbing Atlanta Center
Wed 01:08:30 PM 32.4989 -84.9475 92° East 363 418 25,700 850 Climbing Atlanta Center
Wed 01:09:30 PM 32.4956 -84.8269 92° East 358 412 26,600 750 Climbing Atlanta Center
Wed 01:10:30 PM 32.5317 -84.7139 69° East 358 412 27,200 500 Climbing Atlanta Center
Wed 01:11:30 PM 32.5989 -84.6206 49° Northeast 342 394 27,600 450 Climbing Atlanta Center
Wed 01:12:30 PM 32.6703 -84.5175 51° Northeast 356 410 28,100 550 Climbing Atlanta Center
Wed 01:13:30 PM 32.7394 -84.4192 50° Northeast 373 429 28,700 450 Climbing Atlanta Center
Wed 01:14:30 PM 32.8067 -84.3231 50° Northeast 373 429 29,000 150 Climbing Atlanta Center
Wed 01:15:30 PM 32.8694 -84.2317 51° Northeast 384 442 29,000  Level Atlanta Center
Wed 01:16:30 PM 32.9508 -84.1131 51° Northeast 403 464 29,000  Level Atlanta Center
Wed 01:17:30 PM 33.0219 -84.0042 52° Northeast 408 470 29,000  Level Atlanta Center
Wed 01:18:30 PM 33.0844 -83.9150 50° Northeast 401 461 29,000  Level Atlanta Center
Wed 01:19:30 PM 33.1553 -83.8081 52° Northeast 401 461 29,000 -100 Level Atlanta Center
Wed 01:20:30 PM 33.2261 -83.7036 51° Northeast 401 461 28,800 -650 Descending Atlanta Center
Wed 01:21:30 PM 33.2947 -83.5989 52° Northeast 401 461 27,700 -900 Descending Atlanta Center
Wed 01:22:30 PM 33.3650 -83.4942 51° Northeast 401 461 27,000 -350 Descending Atlanta Center
Wed 01:23:30 PM 33.4356 -83.3892 51° Northeast 401 461 27,000  Level Atlanta Center
Wed 01:24:30 PM 33.5100 -83.2814 50° Northeast 394 453 27,000  Level Atlanta Center
Wed 01:25:30 PM 33.5761 -83.1786 52° Northeast 388 447 27,000  Level Atlanta Center
Wed 01:26:30 PM 33.6444 -83.0781 51° Northeast 388 447 27,000  Level Atlanta Center
Wed 01:27:30 PM 33.7144 -82.9750 51° Northeast 380 437 27,000  Level Atlanta Center
Wed 01:28:30 PM 33.7825 -82.8742 51° Northeast 387 445 27,000  Level Atlanta Center
Wed 01:29:30 PM 33.8483 -82.7681 53° Northeast 392 451 27,000  Level Atlanta Center
Wed 01:30:30 PM 33.9200 -82.6619 51° Northeast 397 457 27,000  Level Atlanta Center
Wed 01:31:30 PM 33.9878 -82.5556 52° Northeast 403 464 27,000 -200 Level Atlanta Center
Wed 01:32:30 PM 34.0572 -82.4442 53° Northeast 403 464 26,600 -900 Descending Atlanta Center
Wed 01:33:30 PM 34.1350 -82.3347 49° Northeast 419 482 25,200 -1,450 Descending Atlanta Center
Wed 01:34:30 PM 34.2086 -82.2203 52° Northeast 425 489 23,700 -1,600 Descending Atlanta Center
Wed 01:35:30 PM 34.2781 -82.1156 51° Northeast 416 479 22,000 -1,600 Descending Atlanta Center
Wed 01:36:30 PM 34.3453 -82.0236 48° Northeast 388 447 20,500 -1,600 Descending Atlanta Center
Wed 01:37:30 PM 34.4169 -81.9411 44° Northeast 360 414 18,800 -1,550 Descending Atlanta Center
Wed 01:38:30 PM 34.4867 -81.8564 45° Northeast 354 407 17,400 -1,500 Descending Atlanta Center
Wed 01:39:30 PM 34.5539 -81.7664 48° Northeast 349 402 15,800 -1,600 Descending Atlanta Center
Wed 01:40:30 PM 34.6211 -81.6864 44° Northeast 349 402 14,200 -1,581 Descending Atlanta Center
Wed 01:41:39 PM 34.6925 -81.5983 45° Northeast 327 376 12,400 -1,100 Descending Atlanta Center
Wed 01:42:30 PM 34.7472 -81.5261 47° Northeast 321 369 12,000 -541 Descending Atlanta Center
Wed 01:43:30 PM 34.8106 -81.4483 45° Northeast 321 369 11,400 -800 Descending Atlanta Center
Wed 01:44:30 PM 34.8714 -81.3678 47° Northeast 321 369 10,400 -700 Descending Atlanta Center
Wed 01:45:30 PM 34.9322 -81.2900 46° Northeast 315 362 10,000 -186 Descending Atlanta Center
Wed 01:46:39 PM 34.9992 -81.2014 47° Northeast 315 362 10,000  Level Atlanta Center
Wed 01:47:30 PM 35.0436 -81.1467 45° Northeast 310 357 10,000  Level Atlanta Center
Wed 01:48:30 PM 35.1086 -81.0683 45° Northeast 310 357 10,000 -550 Level Atlanta Center
Wed 01:49:30 PM 35.1919 -81.0703 359° North 282 325 8,900 -1,338 Descending Atlanta Center
Wed 01:50:49 PM 35.3069 -81.0789 357° North 294 338 6,900 -1,243 Descending Atlanta Center
Wed 01:51:50 PM 35.3886 -81.0886 354° North 294 338 6,000 -443 Descending Atlanta Center
Wed 01:52:51 PM 35.4744 -81.0958 356° North 283 326 6,000  Level Atlanta Center
Wed 01:53:52 PM 35.5433 -81.1011 356° North 233 268 6,000  Level Atlanta Center
Wed 01:54:52 PM 35.5975 -81.0967 North 197 227 6,000  Level Atlanta Center
Wed 01:55:47 PM 35.6083 -81.0347 78° East 191 220 6,000  Level Atlanta Center
Wed 01:56:48 PM 35.5703 -81.0056 148° Southeast 168 193 6,000  Level Atlanta Center
Wed 01:58:01 PM 35.5136 -80.9950 171° South 170 196 6,000 -148 Level Atlanta Center
Wed 01:58:50 PM 35.4739 -80.9914 176° South 169 194 5,700 -716 Descending Atlanta Center
Wed 01:59:50 PM 35.4239 -80.9906 179° South 169 194 4,700 -992 Descending Atlanta Center
Wed 02:00:51 PM 35.3797 -80.9847 174° South 167 192 3,700 -879 Descending Atlanta Center
Wed 02:01:46 PM 35.3381 -80.9811 176° South 165 190 3,000 -806 Descending Atlanta Center
Wed 02:03:05 PM 35.2775 -80.9756 176° South 164 189 1,900 -820 Descending Atlanta Center
Wed 02:04:05 PM 35.2397 -80.9719 176° South 136 157 1,100 -800 Descending Atlanta Center

Login

Don't have an account? Register now (free) for customized features, flight alerts, and more!